sensor_id;sensor_type;location;lat;lon;timestamp;pressure;altitude;pressure_sealevel;temperature;humidity
49342;BME280;35210;41.606;-87.602;2023-02-24T00:01:55;100124.16;;;1.73;65.51
49342;BME280;35210;41.606;-87.602;2023-02-24T00:04:30;100129.34;;;1.74;65.53
49342;BME280;35210;41.606;-87.602;2023-02-24T00:06:58;100135.88;;;1.58;67.10
49342;BME280;35210;41.606;-87.602;2023-02-24T00:09:28;100150.56;;;1.60;66.61
49342;BME280;35210;41.606;-87.602;2023-02-24T00:11:58;100151.06;;;1.73;66.48
49342;BME280;35210;41.606;-87.602;2023-02-24T00:14:28;100163.50;;;1.63;66.22
49342;BME280;35210;41.606;-87.602;2023-02-24T00:16:57;100168.47;;;1.42;66.19
49342;BME280;35210;41.606;-87.602;2023-02-24T00:19:28;100177.25;;;1.38;66.50
49342;BME280;35210;41.606;-87.602;2023-02-24T00:21:57;100183.38;;;1.37;67.47
49342;BME280;35210;41.606;-87.602;2023-02-24T00:24:26;100186.69;;;1.42;66.94
49342;BME280;35210;41.606;-87.602;2023-02-24T00:26:55;100202.41;;;1.39;66.62
49342;BME280;35210;41.606;-87.602;2023-02-24T00:29:25;100206.56;;;1.44;66.76
49342;BME280;35210;41.606;-87.602;2023-02-24T00:31:55;100210.94;;;1.44;67.00
49342;BME280;35210;41.606;-87.602;2023-02-24T00:34:25;100217.94;;;1.42;66.06
49342;BME280;35210;41.606;-87.602;2023-02-24T00:36:56;100231.78;;;1.42;66.05
49342;BME280;35210;41.606;-87.602;2023-02-24T00:39:24;100228.34;;;1.42;65.00
49342;BME280;35210;41.606;-87.602;2023-02-24T00:41:55;100230.31;;;1.32;63.51
49342;BME280;35210;41.606;-87.602;2023-02-24T00:44:30;100244.75;;;1.11;63.88
49342;BME280;35210;41.606;-87.602;2023-02-24T00:47:00;100246.16;;;0.89;62.89
49342;BME280;35210;41.606;-87.602;2023-02-24T00:49:28;100248.00;;;0.85;62.93
49342;BME280;35210;41.606;-87.602;2023-02-24T00:51:58;100266.31;;;0.81;63.33
49342;BME280;35210;41.606;-87.602;2023-02-24T00:54:29;100266.63;;;0.69;64.04
49342;BME280;35210;41.606;-87.602;2023-02-24T00:56:58;100273.34;;;0.76;63.65
49342;BME280;35210;41.606;-87.602;2023-02-24T00:59:27;100270.06;;;0.69;64.61
49342;BME280;35210;41.606;-87.602;2023-02-24T01:01:56;100292.91;;;0.55;64.19
49342;BME280;35210;41.606;-87.602;2023-02-24T01:04:24;100299.78;;;0.57;64.16
49342;BME280;35210;41.606;-87.602;2023-02-24T01:06:55;100314.69;;;0.49;64.75
49342;BME280;35210;41.606;-87.602;2023-02-24T01:09:30;100324.34;;;0.44;64.96
49342;BME280;35210;41.606;-87.602;2023-02-24T01:12:00;100321.56;;;0.52;64.94
49342;BME280;35210;41.606;-87.602;2023-02-24T01:14:49;100332.00;;;0.50;65.56
49342;BME280;35210;41.606;-87.602;2023-02-24T01:17:18;100348.34;;;0.55;65.96
49342;BME280;35210;41.606;-87.602;2023-02-24T01:19:47;100350.78;;;0.63;65.17
49342;BME280;35210;41.606;-87.602;2023-02-24T01:22:18;100355.00;;;0.69;65.75
49342;BME280;35210;41.606;-87.602;2023-02-24T01:24:48;100356.72;;;0.70;66.46
49342;BME280;35210;41.606;-87.602;2023-02-24T01:27:17;100378.84;;;0.86;65.90
49342;BME280;35210;41.606;-87.602;2023-02-24T01:29:46;100376.00;;;0.96;65.76
49342;BME280;35210;41.606;-87.602;2023-02-24T01:32:17;100391.59;;;0.96;65.37
49342;BME280;35210;41.606;-87.602;2023-02-24T01:34:46;100410.66;;;0.97;64.74
49342;BME280;35210;41.606;-87.602;2023-02-24T01:37:14;100407.06;;;1.03;63.94
49342;BME280;35210;41.606;-87.602;2023-02-24T01:39:44;100418.41;;;1.00;64.78
49342;BME280;35210;41.606;-87.602;2023-02-24T01:42:17;100419.97;;;1.07;65.01
49342;BME280;35210;41.606;-87.602;2023-02-24T01:45:12;100425.03;;;1.13;64.11
49342;BME280;35210;41.606;-87.602;2023-02-24T01:47:43;100439.00;;;1.09;63.37
49342;BME280;35210;41.606;-87.602;2023-02-24T01:50:13;100445.16;;;1.05;63.41
49342;BME280;35210;41.606;-87.602;2023-02-24T01:52:44;100440.97;;;0.98;63.29
49342;BME280;35210;41.606;-87.602;2023-02-24T01:55:17;100456.16;;;0.78;62.82
49342;BME280;35210;41.606;-87.602;2023-02-24T01:57:51;100462.50;;;0.66;62.85
49342;BME280;35210;41.606;-87.602;2023-02-24T02:00:22;100469.69;;;0.53;62.98
49342;BME280;35210;41.606;-87.602;2023-02-24T02:03:09;100475.53;;;0.63;65.66
49342;BME280;35210;41.606;-87.602;2023-02-24T02:05:41;100479.06;;;0.60;62.75
49342;BME280;35210;41.606;-87.602;2023-02-24T02:08:16;100498.13;;;0.59;62.61
49342;BME280;35210;41.606;-87.602;2023-02-24T02:10:46;100499.16;;;0.52;62.82
49342;BME280;35210;41.606;-87.602;2023-02-24T02:13:17;100508.00;;;0.42;63.40
49342;BME280;35210;41.606;-87.602;2023-02-24T02:15:57;100503.69;;;0.41;63.30
49342;BME280;35210;41.606;-87.602;2023-02-24T02:18:37;100520.31;;;0.31;64.00
49342;BME280;35210;41.606;-87.602;2023-02-24T02:24:29;100551.44;;;0.34;60.99
49342;BME280;35210;41.606;-87.602;2023-02-24T02:30:59;100568.41;;;0.04;61.06
49342;BME280;35210;41.606;-87.602;2023-02-24T02:36:53;100591.34;;;-0.22;63.39
49342;BME280;35210;41.606;-87.602;2023-02-24T02:39:31;100596.38;;;-0.13;63.37
49342;BME280;35210;41.606;-87.602;2023-02-24T02:42:07;100605.06;;;-0.14;62.73
49342;BME280;35210;41.606;-87.602;2023-02-24T02:44:47;100625.66;;;-0.02;62.86
49342;BME280;35210;41.606;-87.602;2023-02-24T02:47:27;100616.16;;;-0.05;61.35
49342;BME280;35210;41.606;-87.602;2023-02-24T02:50:03;100623.34;;;-0.22;61.20
49342;BME280;35210;41.606;-87.602;2023-02-24T02:52:40;100633.66;;;-0.17;61.62
49342;BME280;35210;41.606;-87.602;2023-02-24T02:55:11;100650.94;;;-0.15;61.50
49342;BME280;35210;41.606;-87.602;2023-02-24T02:57:43;100644.78;;;-0.08;61.78
49342;BME280;35210;41.606;-87.602;2023-02-24T03:00:16;100663.63;;;0.04;62.21
49342;BME280;35210;41.606;-87.602;2023-02-24T03:02:51;100673.13;;;0.05;61.66
49342;BME280;35210;41.606;-87.602;2023-02-24T03:05:28;100681.72;;;0.08;60.52
49342;BME280;35210;41.606;-87.602;2023-02-24T03:07:58;100679.94;;;0.13;59.48
49342;BME280;35210;41.606;-87.602;2023-02-24T03:10:30;100696.72;;;-0.09;57.91
49342;BME280;35210;41.606;-87.602;2023-02-24T03:13:02;100709.03;;;-0.23;57.52
49342;BME280;35210;41.606;-87.602;2023-02-24T03:15:33;100703.91;;;-0.29;58.31
49342;BME280;35210;41.606;-87.602;2023-02-24T03:18:06;100718.56;;;-0.27;59.07
49342;BME280;35210;41.606;-87.602;2023-02-24T03:20:41;100722.97;;;-0.32;58.52
49342;BME280;35210;41.606;-87.602;2023-02-24T03:23:15;100735.13;;;-0.36;59.16
49342;BME280;35210;41.606;-87.602;2023-02-24T03:25:50;100733.44;;;-0.41;59.37
49342;BME280;35210;41.606;-87.602;2023-02-24T03:28:26;100732.78;;;-0.58;59.23
49342;BME280;35210;41.606;-87.602;2023-02-24T03:31:06;100740.50;;;-0.52;59.81
49342;BME280;35210;41.606;-87.602;2023-02-24T03:33:39;100738.84;;;-0.59;59.39
49342;BME280;35210;41.606;-87.602;2023-02-24T03:36:11;100752.56;;;-0.50;59.56
49342;BME280;35210;41.606;-87.602;2023-02-24T03:38:42;100759.63;;;-0.62;59.71
49342;BME280;35210;41.606;-87.602;2023-02-24T03:41:14;100754.28;;;-0.47;59.41
49342;BME280;35210;41.606;-87.602;2023-02-24T03:43:44;100763.72;;;-0.40;59.73
49342;BME280;35210;41.606;-87.602;2023-02-24T03:46:15;100767.13;;;-0.35;60.17
49342;BME280;35210;41.606;-87.602;2023-02-24T03:48:47;100761.13;;;-0.40;59.39
49342;BME280;35210;41.606;-87.602;2023-02-24T03:51:21;100767.84;;;-0.22;59.84
49342;BME280;35210;41.606;-87.602;2023-02-24T03:54:00;100778.31;;;-0.30;59.21
49342;BME280;35210;41.606;-87.602;2023-02-24T03:56:38;100781.69;;;-0.23;59.61
49342;BME280;35210;41.606;-87.602;2023-02-24T03:59:15;100786.81;;;-0.17;59.05
49342;BME280;35210;41.606;-87.602;2023-02-24T04:01:53;100792.81;;;-0.11;58.91
49342;BME280;35210;41.606;-87.602;2023-02-24T04:04:29;100803.38;;;-0.29;59.27
49342;BME280;35210;41.606;-87.602;2023-02-24T04:07:07;100808.44;;;-0.15;59.15
49342;BME280;35210;41.606;-87.602;2023-02-24T04:09:44;100820.47;;;-0.10;59.88
49342;BME280;35210;41.606;-87.602;2023-02-24T04:12:20;100819.63;;;-0.10;57.78
49342;BME280;35210;41.606;-87.602;2023-02-24T04:14:56;100819.88;;;-0.35;57.93
49342;BME280;35210;41.606;-87.602;2023-02-24T04:17:38;100824.06;;;-0.20;58.67
49342;BME280;35210;41.606;-87.602;2023-02-24T04:20:10;100824.06;;;-0.20;58.54
49342;BME280;35210;41.606;-87.602;2023-02-24T04:22:44;100833.66;;;-0.28;57.57
49342;BME280;35210;41.606;-87.602;2023-02-24T04:25:18;100841.53;;;-0.37;57.68
49342;BME280;35210;41.606;-87.602;2023-02-24T04:27:50;100841.63;;;-0.46;57.47
49342;BME280;35210;41.606;-87.602;2023-02-24T04:30:20;100839.00;;;-0.42;58.06
49342;BME280;35210;41.606;-87.602;2023-02-24T04:32:50;100843.34;;;-0.45;58.25
49342;BME280;35210;41.606;-87.602;2023-02-24T04:35:19;100850.22;;;-0.41;58.67
49342;BME280;35210;41.606;-87.602;2023-02-24T04:37:49;100857.09;;;-0.34;58.13
49342;BME280;35210;41.606;-87.602;2023-02-24T04:40:21;100859.75;;;-0.42;58.75
49342;BME280;35210;41.606;-87.602;2023-02-24T04:42:52;100864.19;;;-0.53;58.81
49342;BME280;35210;41.606;-87.602;2023-02-24T04:45:22;100874.50;;;-0.45;58.89
49342;BME280;35210;41.606;-87.602;2023-02-24T04:47:52;100871.81;;;-0.36;59.10
49342;BME280;35210;41.606;-87.602;2023-02-24T04:50:22;100879.50;;;-0.27;59.02
49342;BME280;35210;41.606;-87.602;2023-02-24T04:52:55;100889.09;;;-0.35;59.25
49342;BME280;35210;41.606;-87.602;2023-02-24T04:55:27;100888.09;;;-0.22;58.68
49342;BME280;35210;41.606;-87.602;2023-02-24T04:57:58;100891.56;;;-0.21;59.07
49342;BME280;35210;41.606;-87.602;2023-02-24T05:00:27;100905.50;;;-0.30;58.72
49342;BME280;35210;41.606;-87.602;2023-02-24T05:03:01;100897.75;;;-0.36;58.91
49342;BME280;35210;41.606;-87.602;2023-02-24T05:05:30;100910.66;;;-0.27;59.76
49342;BME280;35210;41.606;-87.602;2023-02-24T05:08:02;100896.84;;;-0.29;59.33
49342;BME280;35210;41.606;-87.602;2023-02-24T05:10:35;100904.59;;;-0.27;60.02
49342;BME280;35210;41.606;-87.602;2023-02-24T05:13:05;100919.22;;;-0.19;59.83
49342;BME280;35210;41.606;-87.602;2023-02-24T05:15:38;100930.50;;;-0.20;57.27
49342;BME280;35210;41.606;-87.602;2023-02-24T05:18:08;100940.09;;;-0.28;56.54
49342;BME280;35210;41.606;-87.602;2023-02-24T05:20:40;100943.59;;;-0.35;56.07
49342;BME280;35210;41.606;-87.602;2023-02-24T05:23:29;100950.59;;;-0.43;55.82
49342;BME280;35210;41.606;-87.602;2023-02-24T05:26:00;100949.78;;;-0.51;55.52
49342;BME280;35210;41.606;-87.602;2023-02-24T05:28:29;100962.84;;;-0.63;56.33
49342;BME280;35210;41.606;-87.602;2023-02-24T05:31:04;100958.66;;;-0.77;57.40
49342;BME280;35210;41.606;-87.602;2023-02-24T05:33:33;100961.25;;;-0.77;56.41
49342;BME280;35210;41.606;-87.602;2023-02-24T05:36:04;100961.31;;;-0.89;56.49
49342;BME280;35210;41.606;-87.602;2023-02-24T05:38:35;100975.16;;;-0.90;56.28
49342;BME280;35210;41.606;-87.602;2023-02-24T05:41:05;100978.56;;;-0.85;55.84
49342;BME280;35210;41.606;-87.602;2023-02-24T05:43:33;100992.44;;;-0.89;54.99
49342;BME280;35210;41.606;-87.602;2023-02-24T05:46:04;100984.63;;;-0.84;55.23
49342;BME280;35210;41.606;-87.602;2023-02-24T05:48:32;101000.13;;;-0.75;54.34
49342;BME280;35210;41.606;-87.602;2023-02-24T05:51:01;101009.59;;;-0.73;54.69
49342;BME280;35210;41.606;-87.602;2023-02-24T05:53:34;101010.53;;;-0.77;53.55
49342;BME280;35210;41.606;-87.602;2023-02-24T05:56:06;101007.94;;;-0.77;53.52
49342;BME280;35210;41.606;-87.602;2023-02-24T05:58:35;101023.47;;;-0.77;54.08
49342;BME280;35210;41.606;-87.602;2023-02-24T06:01:09;101025.22;;;-0.76;54.35
49342;BME280;35210;41.606;-87.602;2023-02-24T06:03:41;101014.84;;;-0.76;54.50
49342;BME280;35210;41.606;-87.602;2023-02-24T06:06:14;101007.00;;;-0.71;54.40
49342;BME280;35210;41.606;-87.602;2023-02-24T06:08:44;101012.25;;;-0.77;54.42
49342;BME280;35210;41.606;-87.602;2023-02-24T06:11:16;101024.34;;;-0.76;54.14
49342;BME280;35210;41.606;-87.602;2023-02-24T06:13:46;101023.50;;;-0.78;54.71
49342;BME280;35210;41.606;-87.602;2023-02-24T06:16:15;101020.88;;;-0.75;54.16
49342;BME280;35210;41.606;-87.602;2023-02-24T06:18:47;101024.34;;;-0.75;54.87
49342;BME280;35210;41.606;-87.602;2023-02-24T06:21:16;101025.16;;;-0.73;54.45
49342;BME280;35210;41.606;-87.602;2023-02-24T06:23:45;101023.44;;;-0.74;54.67
49342;BME280;35210;41.606;-87.602;2023-02-24T06:26:13;101029.47;;;-0.72;54.03
49342;BME280;35210;41.606;-87.602;2023-02-24T06:28:45;101035.63;;;-0.85;53.42
49342;BME280;35210;41.606;-87.602;2023-02-24T06:31:15;101046.06;;;-0.97;54.39
49342;BME280;35210;41.606;-87.602;2023-02-24T06:33:43;101047.78;;;-0.99;54.12
49342;BME280;35210;41.606;-87.602;2023-02-24T06:36:12;101049.56;;;-1.07;54.94
49342;BME280;35210;41.606;-87.602;2023-02-24T06:38:41;101058.22;;;-1.11;54.61
49342;BME280;35210;41.606;-87.602;2023-02-24T06:41:10;101066.00;;;-1.17;55.24
49342;BME280;35210;41.606;-87.602;2023-02-24T06:43:39;101071.16;;;-1.11;54.47
49342;BME280;35210;41.606;-87.602;2023-02-24T06:46:10;101077.22;;;-1.15;54.45
49342;BME280;35210;41.606;-87.602;2023-02-24T06:48:39;101075.50;;;-1.10;55.05
49342;BME280;35210;41.606;-87.602;2023-02-24T06:51:09;101081.56;;;-1.14;55.96
49342;BME280;35210;41.606;-87.602;2023-02-24T06:53:39;101082.41;;;-1.09;55.61
49342;BME280;35210;41.606;-87.602;2023-02-24T06:56:10;101089.28;;;-1.02;55.15
49342;BME280;35210;41.606;-87.602;2023-02-24T06:58:43;101089.31;;;-1.08;54.80
49342;BME280;35210;41.606;-87.602;2023-02-24T07:01:14;101097.06;;;-1.04;54.32
49342;BME280;35210;41.606;-87.602;2023-02-24T07:03:43;101103.97;;;-0.96;55.28
49342;BME280;35210;41.606;-87.602;2023-02-24T07:06:28;101110.00;;;-0.96;55.53
49342;BME280;35210;41.606;-87.602;2023-02-24T07:09:00;101108.25;;;-0.86;55.36
49342;BME280;35210;41.606;-87.602;2023-02-24T07:11:32;101105.66;;;-0.85;54.87
49342;BME280;35210;41.606;-87.602;2023-02-24T07:14:01;101112.56;;;-0.87;54.89
49342;BME280;35210;41.606;-87.602;2023-02-24T07:16:30;101114.31;;;-0.89;55.65
49342;BME280;35210;41.606;-87.602;2023-02-24T07:19:00;101116.84;;;-0.77;54.90
49342;BME280;35210;41.606;-87.602;2023-02-24T07:21:30;101121.22;;;-0.83;54.73
49342;BME280;35210;41.606;-87.602;2023-02-24T07:24:05;101122.06;;;-0.84;55.20
49342;BME280;35210;41.606;-87.602;2023-02-24T07:26:35;101133.31;;;-0.87;54.99
49342;BME280;35210;41.606;-87.602;2023-02-24T07:29:06;101140.25;;;-0.87;55.42
49342;BME280;35210;41.606;-87.602;2023-02-24T07:31:37;101141.09;;;-0.87;55.30
49342;BME280;35210;41.606;-87.602;2023-02-24T07:34:05;101136.75;;;-0.82;55.78
49342;BME280;35210;41.606;-87.602;2023-02-24T07:36:33;101142.81;;;-0.83;55.72
49342;BME280;35210;41.606;-87.602;2023-02-24T07:39:14;101151.47;;;-0.85;56.39
49342;BME280;35210;41.606;-87.602;2023-02-24T07:41:45;101148.88;;;-0.81;55.71
49342;BME280;35210;41.606;-87.602;2023-02-24T07:44:16;101156.66;;;-0.81;55.48
49342;BME280;35210;41.606;-87.602;2023-02-24T07:46:44;101167.03;;;-0.90;55.56
49342;BME280;35210;41.606;-87.602;2023-02-24T07:49:15;101167.03;;;-0.88;55.85
49342;BME280;35210;41.606;-87.602;2023-02-24T07:51:45;101162.72;;;-0.91;56.45
49342;BME280;35210;41.606;-87.602;2023-02-24T07:54:18;101177.44;;;-0.99;56.88
49342;BME280;35210;41.606;-87.602;2023-02-24T07:56:48;101178.28;;;-0.95;56.64
49342;BME280;35210;41.606;-87.602;2023-02-24T07:59:25;101181.75;;;-0.96;56.22
49342;BME280;35210;41.606;-87.602;2023-02-24T08:01:54;101188.66;;;-0.95;56.87
49342;BME280;35210;41.606;-87.602;2023-02-24T08:04:24;101189.50;;;-0.89;55.92
49342;BME280;35210;41.606;-87.602;2023-02-24T08:06:53;101192.13;;;-1.01;55.91
49342;BME280;35210;41.606;-87.602;2023-02-24T08:09:29;101196.47;;;-1.03;55.63
49342;BME280;35210;41.606;-87.602;2023-02-24T08:12:24;101199.06;;;-1.11;56.56
49342;BME280;35210;41.606;-87.602;2023-02-24T08:14:53;101200.78;;;-1.08;56.73
49342;BME280;35210;41.606;-87.602;2023-02-24T08:17:26;101216.34;;;-1.05;56.40
49342;BME280;35210;41.606;-87.602;2023-02-24T08:19:55;101228.44;;;-1.18;56.36
49342;BME280;35210;41.606;-87.602;2023-02-24T08:22:48;101227.59;;;-1.27;57.02
49342;BME280;35210;41.606;-87.602;2023-02-24T08:25:20;101230.16;;;-1.43;56.79
49342;BME280;35210;41.606;-87.602;2023-02-24T08:27:52;101235.34;;;-1.44;56.67
49342;BME280;35210;41.606;-87.602;2023-02-24T08:30:24;101233.63;;;-1.44;56.99
49342;BME280;35210;41.606;-87.602;2023-02-24T08:32:55;101237.97;;;-1.52;57.38
49342;BME280;35210;41.606;-87.602;2023-02-24T08:35:26;101241.41;;;-1.68;59.04
49342;BME280;35210;41.606;-87.602;2023-02-24T08:38:00;101246.59;;;-1.59;59.41
49342;BME280;35210;41.606;-87.602;2023-02-24T08:40:31;101247.44;;;-1.63;59.00
49342;BME280;35210;41.606;-87.602;2023-02-24T08:43:21;101244.88;;;-1.54;58.77
49342;BME280;35210;41.606;-87.602;2023-02-24T08:46:04;101252.66;;;-1.52;58.26
49342;BME280;35210;41.606;-87.602;2023-02-24T08:48:39;101250.06;;;-1.51;58.48
49342;BME280;35210;41.606;-87.602;2023-02-24T08:51:11;101247.47;;;-1.55;58.44
49342;BME280;35210;41.606;-87.602;2023-02-24T08:53:40;101246.59;;;-1.62;59.13
49342;BME280;35210;41.606;-87.602;2023-02-24T08:56:10;101244.84;;;-1.61;58.35
49342;BME280;35210;41.606;-87.602;2023-02-24T08:58:42;101247.44;;;-1.66;58.78
49342;BME280;35210;41.606;-87.602;2023-02-24T09:01:16;101256.94;;;-1.71;59.12
49342;BME280;35210;41.606;-87.602;2023-02-24T09:03:46;101265.56;;;-1.68;58.53
49342;BME280;35210;41.606;-87.602;2023-02-24T09:06:16;101265.53;;;-1.78;59.17
49342;BME280;35210;41.606;-87.602;2023-02-24T09:08:51;101272.44;;;-1.77;60.38
49342;BME280;35210;41.606;-87.602;2023-02-24T09:11:42;101257.78;;;-1.80;59.36
49342;BME280;35210;41.606;-87.602;2023-02-24T09:14:16;101259.50;;;-1.77;59.88
49342;BME280;35210;41.606;-87.602;2023-02-24T09:16:46;101259.50;;;-1.83;59.53
49342;BME280;35210;41.606;-87.602;2023-02-24T09:19:34;101247.38;;;-1.90;60.26
49342;BME280;35210;41.606;-87.602;2023-02-24T09:22:26;101247.41;;;-1.86;59.88
49342;BME280;35210;41.606;-87.602;2023-02-24T09:25:01;101251.72;;;-1.83;60.43
49342;BME280;35210;41.606;-87.602;2023-02-24T09:27:47;101258.59;;;-1.88;60.78
49342;BME280;35210;41.606;-87.602;2023-02-24T09:30:20;101256.03;;;-1.87;60.85
49342;BME280;35210;41.606;-87.602;2023-02-24T09:33:15;101271.56;;;-1.88;60.48
49342;BME280;35210;41.606;-87.602;2023-02-24T09:36:00;101272.41;;;-1.89;60.79
49342;BME280;35210;41.606;-87.602;2023-02-24T09:38:47;101278.47;;;-1.89;61.16
49342;BME280;35210;41.606;-87.602;2023-02-24T09:41:39;101278.44;;;-1.90;61.49
49342;BME280;35210;41.606;-87.602;2023-02-24T09:44:27;101280.16;;;-1.94;61.37
49342;BME280;35210;41.606;-87.602;2023-02-24T09:47:06;101279.31;;;-1.91;61.21
49342;BME280;35210;41.606;-87.602;2023-02-24T09:49:46;101277.56;;;-1.95;61.12
49342;BME280;35210;41.606;-87.602;2023-02-24T09:52:16;101288.75;;;-2.09;61.21
49342;BME280;35210;41.606;-87.602;2023-02-24T09:54:47;101292.19;;;-2.05;61.63
49342;BME280;35210;41.606;-87.602;2023-02-24T09:57:37;101299.09;;;-2.09;61.85
49342;BME280;35210;41.606;-87.602;2023-02-24T10:00:29;101305.13;;;-2.11;61.67
49342;BME280;35210;41.606;-87.602;2023-02-24T10:03:08;101316.34;;;-2.08;61.77
49342;BME280;35210;41.606;-87.602;2023-02-24T10:05:49;101333.63;;;-2.04;61.84
49342;BME280;35210;41.606;-87.602;2023-02-24T10:08:30;101338.81;;;-2.02;61.14
49342;BME280;35210;41.606;-87.602;2023-02-24T10:11:01;101341.38;;;-2.10;60.98
49342;BME280;35210;41.606;-87.602;2023-02-24T10:13:36;101335.28;;;-2.16;61.42
49342;BME280;35210;41.606;-87.602;2023-02-24T10:16:09;101339.59;;;-2.17;61.19
49342;BME280;35210;41.606;-87.602;2023-02-24T10:18:45;101351.66;;;-2.22;61.97
49342;BME280;35210;41.606;-87.602;2023-02-24T10:21:26;101355.97;;;-2.19;62.18
49342;BME280;35210;41.606;-87.602;2023-02-24T10:24:18;101363.72;;;-2.21;62.65
49342;BME280;35210;41.606;-87.602;2023-02-24T10:26:51;101374.97;;;-2.16;61.73
49342;BME280;35210;41.606;-87.602;2023-02-24T10:29:36;101373.25;;;-2.14;61.34
49342;BME280;35210;41.606;-87.602;2023-02-24T10:32:17;101379.28;;;-2.24;61.66
49342;BME280;35210;41.606;-87.602;2023-02-24T10:34:50;101388.75;;;-2.24;61.93
49342;BME280;35210;41.606;-87.602;2023-02-24T10:37:21;101394.78;;;-2.25;62.08
49342;BME280;35210;41.606;-87.602;2023-02-24T10:39:50;101407.69;;;-2.30;62.57
49342;BME280;35210;41.606;-87.602;2023-02-24T10:42:23;101416.31;;;-2.33;62.61
49342;BME280;35210;41.606;-87.602;2023-02-24T10:45:06;101418.91;;;-2.31;63.09
49342;BME280;35210;41.606;-87.602;2023-02-24T10:47:38;101422.34;;;-2.34;63.32
49342;BME280;35210;41.606;-87.602;2023-02-24T10:50:22;101431.78;;;-2.37;63.35
49342;BME280;35210;41.606;-87.602;2023-02-24T10:52:52;101418.78;;;-2.45;62.82
49342;BME280;35210;41.606;-87.602;2023-02-24T10:55:43;101423.97;;;-2.43;62.78
49342;BME280;35210;41.606;-87.602;2023-02-24T10:58:41;101436.91;;;-2.45;63.73
49342;BME280;35210;41.606;-87.602;2023-02-24T11:01:24;101451.56;;;-2.45;63.26
49342;BME280;35210;41.606;-87.602;2023-02-24T11:04:11;101446.44;;;-2.39;62.52
49342;BME280;35210;41.606;-87.602;2023-02-24T11:06:49;101449.81;;;-2.49;63.17
49342;BME280;35210;41.606;-87.602;2023-02-24T11:09:24;101460.13;;;-2.51;63.56
49342;BME280;35210;41.606;-87.602;2023-02-24T11:12:14;101463.63;;;-2.44;63.90
49342;BME280;35210;41.606;-87.602;2023-02-24T11:15:02;101466.22;;;-2.44;62.53
49342;BME280;35210;41.606;-87.602;2023-02-24T11:17:49;101461.84;;;-2.51;63.00
49342;BME280;35210;41.606;-87.602;2023-02-24T11:20:26;101465.28;;;-2.52;63.26
49342;BME280;35210;41.606;-87.602;2023-02-24T11:23:00;101468.75;;;-2.50;63.53
49342;BME280;35210;41.606;-87.602;2023-02-24T11:25:35;101474.81;;;-2.48;63.60
49342;BME280;35210;41.606;-87.602;2023-02-24T11:28:18;101474.75;;;-2.56;63.29
49342;BME280;35210;41.606;-87.602;2023-02-24T11:30:55;101486.00;;;-2.49;63.74
49342;BME280;35210;41.606;-87.602;2023-02-24T11:33:31;101486.94;;;-2.44;63.35
49342;BME280;35210;41.606;-87.602;2023-02-24T11:36:11;101486.91;;;-2.46;63.11
49342;BME280;35210;41.606;-87.602;2023-02-24T11:38:58;101483.47;;;-2.45;63.47
49342;BME280;35210;41.606;-87.602;2023-02-24T11:41:32;101488.72;;;-2.36;62.97
49342;BME280;35210;41.606;-87.602;2023-02-24T11:44:09;101490.38;;;-2.44;63.14
49342;BME280;35210;41.606;-87.602;2023-02-24T11:46:43;101483.56;;;-2.36;62.82
49342;BME280;35210;41.606;-87.602;2023-02-24T11:49:24;101487.84;;;-2.36;62.80
49342;BME280;35210;41.606;-87.602;2023-02-24T11:51:55;101490.41;;;-2.41;62.88
49342;BME280;35210;41.606;-87.602;2023-02-24T11:54:30;101491.22;;;-2.45;62.92
49342;BME280;35210;41.606;-87.602;2023-02-24T11:57:04;101502.41;;;-2.49;63.31
49342;BME280;35210;41.606;-87.602;2023-02-24T11:59:36;101502.34;;;-2.53;64.11
49342;BME280;35210;41.606;-87.602;2023-02-24T12:02:15;101503.28;;;-2.48;63.80
49342;BME280;35210;41.606;-87.602;2023-02-24T12:04:54;101502.38;;;-2.52;62.98
49342;BME280;35210;41.606;-87.602;2023-02-24T12:07:27;101496.38;;;-2.46;62.59
49342;BME280;35210;41.606;-87.602;2023-02-24T12:10:03;101497.13;;;-2.59;62.83
49342;BME280;35210;41.606;-87.602;2023-02-24T12:12:41;101490.22;;;-2.59;63.15
49342;BME280;35210;41.606;-87.602;2023-02-24T12:15:18;101492.81;;;-2.60;63.19
49342;BME280;35210;41.606;-87.602;2023-02-24T12:17:56;101497.97;;;-2.60;63.16
49342;BME280;35210;41.606;-87.602;2023-02-24T12:20:31;101506.50;;;-2.69;63.73
49342;BME280;35210;41.606;-87.602;2023-02-24T12:23:13;101506.53;;;-2.68;63.77
49342;BME280;35210;41.606;-87.602;2023-02-24T12:25:58;101504.00;;;-2.63;64.22
49342;BME280;35210;41.606;-87.602;2023-02-24T12:28:46;101501.44;;;-2.58;63.83
49342;BME280;35210;41.606;-87.602;2023-02-24T12:31:23;101499.78;;;-2.53;62.92
49342;BME280;35210;41.606;-87.602;2023-02-24T12:34:04;101501.47;;;-2.55;63.14
49342;BME280;35210;41.606;-87.602;2023-02-24T12:36:52;101508.41;;;-2.51;63.33
49342;BME280;35210;41.606;-87.602;2023-02-24T12:39:28;101500.63;;;-2.53;63.42
49342;BME280;35210;41.606;-87.602;2023-02-24T12:42:08;101516.16;;;-2.53;63.36
49342;BME280;35210;41.606;-87.602;2023-02-24T12:44:46;101518.72;;;-2.54;63.27
49342;BME280;35210;41.606;-87.602;2023-02-24T12:47:22;101516.13;;;-2.56;63.63
49342;BME280;35210;41.606;-87.602;2023-02-24T12:50:06;101515.28;;;-2.53;63.42
49342;BME280;35210;41.606;-87.602;2023-02-24T12:52:47;101518.78;;;-2.50;63.74
49342;BME280;35210;41.606;-87.602;2023-02-24T12:55:21;101537.81;;;-2.43;63.59
49342;BME280;35210;41.606;-87.602;2023-02-24T12:57:58;101543.84;;;-2.43;63.36
49342;BME280;35210;41.606;-87.602;2023-02-24T13:00:41;101531.78;;;-2.42;63.26
49342;BME280;35210;41.606;-87.602;2023-02-24T13:03:26;101525.78;;;-2.38;63.25
49342;BME280;35210;41.606;-87.602;2023-02-24T13:06:04;101551.59;;;-2.44;62.85
49342;BME280;35210;41.606;-87.602;2023-02-24T13:08:42;101555.88;;;-2.46;63.01
49342;BME280;35210;41.606;-87.602;2023-02-24T13:11:22;101571.41;;;-2.48;63.55
49342;BME280;35210;41.606;-87.602;2023-02-24T13:13:59;101574.91;;;-2.43;63.33
49342;BME280;35210;41.606;-87.602;2023-02-24T13:16:32;101586.06;;;-2.45;63.56
49342;BME280;35210;41.606;-87.602;2023-02-24T13:19:05;101584.41;;;-2.40;63.76
49342;BME280;35210;41.606;-87.602;2023-02-24T13:21:34;101587.00;;;-2.40;64.12